Time;durP1;ratioP1;P1;durP2;ratioP2;P2;SDS_P1;SDS_P2;PMS_P1;PMS_P2;Temp;Humidity;BMP_temperature;BMP_pressure;BME280_temperature;BME280_humidity;BME280_pressure;Samples;Min_cycle;Max_cycle;Signal;HPM_P1;HPM_P2
2022/12/12 00:01:51;;;;;;;20.75;8.40;;;1.50;92.60;;;;;;5012381;28;20481;-75
2022/12/12 00:04:17;;;;;;;21.15;9.18;;;1.50;92.60;;;;;;5010160;28;20120;-74
2022/12/12 00:06:43;;;;;;;20.83;9.95;;;1.50;92.50;;;;;;5008480;28;20040;-75
2022/12/12 00:09:09;;;;;;;19.70;8.45;;;1.40;92.50;;;;;;5009919;28;20029;-74
2022/12/12 00:11:36;;;;;;;21.50;8.02;;;1.40;92.60;;;;;;5014676;28;20034;-75
2022/12/12 00:14:02;;;;;;;23.48;8.35;;;1.40;92.50;;;;;;5014119;28;20414;-74
2022/12/12 00:16:28;;;;;;;18.63;8.25;;;1.40;92.50;;;;;;5009503;28;20033;-74
2022/12/12 00:18:54;;;;;;;18.98;8.38;;;1.30;92.60;;;;;;5010659;28;20041;-73
2022/12/12 00:21:25;;;;;;;21.90;10.30;;;1.30;92.70;;;;;;5009348;28;20109;-74
2022/12/12 00:23:51;;;;;;;18.45;9.05;;;1.30;92.60;;;;;;5007432;28;20494;-74
2022/12/12 00:26:26;;;;;;;22.58;9.30;;;1.30;92.50;;;;;;5003319;28;20049;-74
2022/12/12 00:28:52;;;;;;;20.75;8.40;;;1.30;92.40;;;;;;5013112;28;20091;-74
2022/12/12 00:31:18;;;;;;;18.98;8.55;;;1.30;92.50;;;;;;5011831;28;20069;-74
2022/12/12 00:33:46;;;;;;;19.88;7.40;;;1.30;92.60;;;;;;5016213;28;20044;-74
2022/12/12 00:36:13;;;;;;;18.20;7.55;;;1.30;92.80;;;;;;5014604;28;20095;-75
2022/12/12 00:38:39;;;;;;;18.08;8.88;;;1.30;92.70;;;;;;5006764;28;20029;-75
2022/12/12 00:41:05;;;;;;;20.13;9.02;;;1.30;92.80;;;;;;5013338;28;20056;-74
2022/12/12 00:43:31;;;;;;;20.17;8.38;;;1.30;92.90;;;;;;5006807;28;20029;-74
2022/12/12 00:46:00;;;;;;;18.63;8.65;;;1.30;92.60;;;;;;5001208;28;20552;-74
2022/12/12 00:48:26;;;;;;;18.70;7.72;;;1.30;92.70;;;;;;5045723;28;20037;-75
2022/12/12 00:50:53;;;;;;;19.70;9.35;;;1.20;92.90;;;;;;5012702;28;20037;-74
2022/12/12 00:53:19;;;;;;;19.70;8.95;;;1.30;93.00;;;;;;5009605;28;20098;-74
2022/12/12 00:55:44;;;;;;;24.15;10.98;;;1.30;92.90;;;;;;5005600;28;20544;-74
2022/12/12 00:58:11;;;;;;;19.88;8.45;;;1.30;92.80;;;;;;5007636;28;20514;-74
2022/12/12 01:00:40;;;;;;;17.25;8.27;;;1.40;92.80;;;;;;5011953;28;20115;-74
2022/12/12 01:03:06;;;;;;;17.42;8.82;;;1.40;92.90;;;;;;5010330;28;20041;-75
2022/12/12 01:05:32;;;;;;;19.85;8.60;;;1.40;93.00;;;;;;5007357;28;20041;-75
2022/12/12 01:07:57;;;;;;;20.13;9.25;;;1.40;92.90;;;;;;5012234;28;20101;-74
2022/12/12 01:10:23;;;;;;;22.52;8.45;;;1.40;93.00;;;;;;5013348;28;20034;-74
2022/12/12 01:12:49;;;;;;;19.80;8.63;;;1.40;93.10;;;;;;5009628;28;20477;-74
2022/12/12 01:15:15;;;;;;;20.00;8.80;;;1.40;92.90;;;;;;5005550;28;20087;-74
2022/12/12 01:17:41;;;;;;;19.40;8.85;;;1.40;92.90;;;;;;5008475;28;20489;-75
2022/12/12 01:20:16;;;;;;;22.90;9.00;;;1.50;92.80;;;;;;5009097;28;20481;-75
2022/12/12 01:22:41;;;;;;;18.48;8.93;;;1.40;92.90;;;;;;5012137;28;20767;-75
2022/12/12 01:25:09;;;;;;;21.45;8.52;;;1.40;92.90;;;;;;5011137;28;20045;-74
2022/12/12 01:27:34;;;;;;;23.77;9.40;;;1.40;93.00;;;;;;5016430;28;20083;-75
2022/12/12 01:30:01;;;;;;;22.45;9.68;;;1.40;93.10;;;;;;5016947;28;20448;-74
2022/12/12 01:32:27;;;;;;;20.17;8.43;;;1.40;93.10;;;;;;5012816;28;20081;-74
2022/12/12 01:34:54;;;;;;;17.08;8.02;;;1.50;93.00;;;;;;5009781;28;20037;-74
2022/12/12 01:37:20;;;;;;;22.52;9.90;;;1.50;93.00;;;;;;5012966;28;20036;-75
2022/12/12 01:39:46;;;;;;;18.85;8.38;;;1.50;93.00;;;;;;5010116;28;20417;-75
2022/12/12 01:42:14;;;;;;;20.05;8.88;;;1.50;93.00;;;;;;5017398;28;20037;-75
2022/12/12 01:44:49;;;;;;;18.83;8.65;;;1.50;92.90;;;;;;5019269;28;20136;-75
2022/12/12 01:47:18;;;;;;;21.90;8.80;;;1.50;92.80;;;;;;5017317;28;20052;-75
2022/12/12 01:49:48;;;;;;;20.92;9.20;;;1.50;92.90;;;;;;5015279;28;20029;-75
2022/12/12 01:52:18;;;;;;;18.73;8.25;;;1.50;92.90;;;;;;5011367;28;20033;-74
2022/12/12 01:54:49;;;;;;;21.85;8.93;;;1.50;93.00;;;;;;5015141;28;20033;-75
2022/12/12 01:57:21;;;;;;;19.45;9.13;;;1.50;93.00;;;;;;5013920;28;20505;-74
2022/12/12 01:59:47;;;;;;;19.83;8.73;;;1.50;92.80;;;;;;5008333;28;20034;-75
2022/12/12 02:02:13;;;;;;;17.15;8.32;;;1.50;92.90;;;;;;5011323;28;20026;-74
2022/12/12 02:04:40;;;;;;;19.45;9.45;;;1.50;93.00;;;;;;5014896;28;20021;-75
2022/12/12 02:07:05;;;;;;;24.27;10.40;;;1.50;93.10;;;;;;5014324;28;20037;-75
2022/12/12 02:09:32;;;;;;;20.40;8.77;;;1.50;93.10;;;;;;5012737;28;20025;-75
2022/12/12 02:11:58;;;;;;;22.85;9.15;;;1.50;93.00;;;;;;5008020;28;20121;-75
2022/12/12 02:14:37;;;;;;;21.90;9.02;;;1.50;93.20;;;;;;5010215;28;20047;-75
2022/12/12 02:17:20;;;;;;;23.05;8.65;;;1.50;93.00;;;;;;5011031;28;20045;-75
2022/12/12 02:20:07;;;;;;;17.58;9.00;;;1.50;93.20;;;;;;5008816;28;20553;-75
2022/12/12 02:22:57;;;;;;;20.20;9.57;;;1.50;93.20;;;;;;5011838;28;20128;-75
2022/12/12 02:25:54;;;;;;;20.90;9.13;;;1.50;93.20;;;;;;5016099;28;20042;-75
2022/12/12 02:28:39;;;;;;;;;;;1.50;93.40;;;;;;5012922;28;20029;-75
2022/12/12 02:31:14;;;;;;;17.13;7.40;;;1.50;93.50;;;;;;5015700;28;19917;-75
2022/12/12 02:34:14;;;;;;;23.38;8.60;;;1.50;93.50;;;;;;5011759;28;20033;-74
2022/12/12 02:37:00;;;;;;;20.00;8.95;;;1.60;93.20;;;;;;4968466;28;20123;-75
2022/12/12 02:39:41;;;;;;;22.00;9.82;;;1.60;93.30;;;;;;5005825;28;20441;-75
2022/12/12 02:42:24;;;;;;;19.90;8.77;;;1.60;93.40;;;;;;5014515;28;20037;-75
2022/12/12 02:45:13;;;;;;;21.77;9.65;;;1.60;93.30;;;;;;5011040;28;20038;-74
2022/12/12 02:47:50;;;;;;;21.88;9.55;;;1.60;93.30;;;;;;5009269;28;20029;-75
2022/12/12 02:50:21;;;;;;;25.88;9.50;;;1.70;93.30;;;;;;5008376;28;20026;-76
2022/12/12 02:52:50;;;;;;;24.33;9.80;;;1.70;93.40;;;;;;5011899;28;20038;-75
2022/12/12 02:55:16;;;;;;;22.30;8.55;;;1.70;93.50;;;;;;5013398;28;20033;-75
2022/12/12 02:57:42;;;;;;;28.20;10.70;;;1.70;93.60;;;;;;5002711;28;20042;-75
2022/12/12 03:00:11;;;;;;;27.73;10.63;;;1.70;93.70;;;;;;5012182;28;20034;-75
2022/12/12 03:08:42;;;;;;;24.60;9.98;;;1.70;94.00;;;;;;5008243;28;19909;-75
2022/12/12 03:11:13;;;;;;;25.25;10.77;;;1.80;93.90;;;;;;5011432;28;20117;-75
2022/12/12 03:13:58;;;;;;;28.58;10.60;;;1.80;94.20;;;;;;5009435;28;20094;-75
2022/12/12 03:16:28;;;;;;;24.55;10.10;;;1.80;93.80;;;;;;5009271;28;20040;-75
2022/12/12 03:19:18;;;;;;;21.92;9.93;;;1.80;93.80;;;;;;5011668;28;20042;-75
2022/12/12 03:21:53;;;;;;;24.15;9.68;;;1.80;93.80;;;;;;5011013;28;20048;-75
2022/12/12 03:24:48;;;;;;;24.33;9.48;;;1.80;93.90;;;;;;5012763;28;20047;-76
2022/12/12 03:27:29;;;;;;;23.33;9.32;;;1.80;93.90;;;;;;4990309;28;20046;-75
2022/12/12 03:30:09;;;;;;;24.17;10.20;;;1.80;93.90;;;;;;5012079;28;20037;-75
2022/12/12 03:32:52;;;;;;;22.20;10.05;;;1.90;93.90;;;;;;5008528;28;20401;-76
2022/12/12 03:35:26;;;;;;;23.02;9.77;;;1.90;94.00;;;;;;5009621;28;20038;-75
2022/12/12 03:38:20;;;;;;;22.00;8.75;;;1.90;94.00;;;;;;5009869;28;20034;-75
2022/12/12 03:40:53;;;;;;;20.60;9.00;;;1.90;94.00;;;;;;5006732;28;20041;-75
2022/12/12 03:43:22;;;;;;;19.67;8.82;;;1.90;94.00;;;;;;5012823;28;20055;-75
2022/12/12 03:46:00;;;;;;;23.83;11.02;;;2.00;94.10;;;;;;5005477;28;20029;-75
2022/12/12 03:48:37;;;;;;;22.30;10.57;;;2.00;94.00;;;;;;5013388;28;20038;-76
2022/12/12 03:51:09;;;;;;;22.90;9.52;;;2.00;93.90;;;;;;5013226;28;20033;-75
2022/12/12 03:53:45;;;;;;;25.40;10.63;;;2.00;93.90;;;;;;5004246;28;20037;-75
2022/12/12 03:56:16;;;;;;;20.48;9.13;;;2.00;93.80;;;;;;5011387;28;20052;-75
2022/12/12 03:59:05;;;;;;;19.77;9.00;;;2.00;93.80;;;;;;5014227;28;20026;-76
2022/12/12 04:01:45;;;;;;;19.25;8.90;;;2.10;93.80;;;;;;5010103;28;20487;-76
2022/12/12 04:04:23;;;;;;;17.92;8.45;;;2.10;93.90;;;;;;5011369;28;20091;-75
2022/12/12 04:07:11;;;;;;;20.92;8.35;;;2.10;93.90;;;;;;5007960;28;20038;-76
2022/12/12 04:13:00;;;;;;;22.77;9.25;;;2.10;94.00;;;;;;5004634;28;20087;-76
2022/12/12 04:15:31;;;;;;;17.73;8.38;;;2.10;94.00;;;;;;5012825;28;20383;-75
2022/12/12 04:18:15;;;;;;;18.75;8.48;;;2.10;94.10;;;;;;5013766;28;20037;-76
2022/12/12 04:23:59;;;;;;;16.50;7.82;;;2.10;94.00;;;;;;5008469;28;20041;-76
2022/12/12 04:26:40;;;;;;;19.65;8.32;;;2.10;93.90;;;;;;5015840;28;20041;-75
2022/12/12 04:29:38;;;;;;;16.52;7.38;;;2.10;93.90;;;;;;5009740;28;20044;-75
2022/12/12 04:32:11;;;;;;;16.38;7.80;;;2.10;93.90;;;;;;4996480;28;20095;-74
2022/12/12 04:34:46;;;;;;;19.77;8.25;;;2.20;94.00;;;;;;5009803;28;20047;-76
2022/12/12 04:37:15;;;;;;;16.63;7.10;;;2.20;94.00;;;;;;5013274;28;20036;-76
2022/12/12 04:39:46;;;;;;;17.30;8.25;;;2.20;94.00;;;;;;5012747;28;20037;-76
2022/12/12 04:42:14;;;;;;;22.85;9.52;;;2.20;94.00;;;;;;5010312;28;20355;-76
2022/12/12 04:44:42;;;;;;;18.17;8.48;;;2.20;93.90;;;;;;5006422;28;20038;-75
2022/12/12 04:47:10;;;;;;;17.10;8.63;;;2.20;93.90;;;;;;5009539;28;20033;-75
2022/12/12 04:49:38;;;;;;;15.43;7.57;;;2.20;94.00;;;;;;5013994;28;20120;-76
2022/12/12 04:52:11;;;;;;;15.57;6.85;;;2.20;94.00;;;;;;5014187;28;20513;-76
2022/12/12 04:54:49;;;;;;;12.27;6.18;;;2.20;94.10;;;;;;5010438;28;20587;-76
2022/12/12 04:57:44;;;;;;;15.13;7.55;;;2.20;94.10;;;;;;5013563;28;20032;-76
2022/12/12 05:00:11;;;;;;;16.60;7.57;;;2.30;94.00;;;;;;5005090;28;20080;-76
2022/12/12 05:02:47;;;;;;;16.30;7.22;;;2.30;94.00;;;;;;5007777;28;20112;-76
2022/12/12 05:05:26;;;;;;;14.63;7.63;;;2.30;94.00;;;;;;5010980;28;20037;-75
2022/12/12 05:07:56;;;;;;;14.38;6.38;;;2.30;93.90;;;;;;5016336;28;20041;-76
2022/12/12 05:10:23;;;;;;;14.07;7.30;;;2.30;94.20;;;;;;5014137;28;20044;-76
2022/12/12 05:12:52;;;;;;;16.88;8.10;;;2.30;93.90;;;;;;5016759;28;20033;-76
2022/12/12 05:15:19;;;;;;;15.15;6.65;;;2.30;93.80;;;;;;5011178;28;20140;-76
2022/12/12 05:18:06;;;;;;;13.52;6.75;;;2.30;93.90;;;;;;5014328;28;20098;-75
2022/12/12 05:20:32;;;;;;;16.85;6.72;;;2.30;94.00;;;;;;5011417;28;20102;-76
2022/12/12 05:22:58;;;;;;;14.45;6.68;;;2.30;94.10;;;;;;5008483;28;20798;-75
2022/12/12 05:25:24;;;;;;;13.20;6.13;;;2.30;94.10;;;;;;5015220;28;20044;-76
2022/12/12 05:27:50;;;;;;;11.88;6.25;;;2.30;94.10;;;;;;5004918;28;20045;-75
2022/12/12 05:30:15;;;;;;;13.23;6.60;;;2.30;94.20;;;;;;5007293;28;20038;-75
2022/12/12 05:32:41;;;;;;;12.32;6.63;;;2.40;94.00;;;;;;5012413;28;20117;-76
2022/12/12 05:35:08;;;;;;;12.45;6.28;;;2.40;94.00;;;;;;5008991;28;20409;-76
2022/12/12 05:37:34;;;;;;;12.73;6.10;;;2.40;94.10;;;;;;5007489;28;20032;-75
2022/12/12 05:40:00;;;;;;;14.77;6.63;;;2.40;94.10;;;;;;5007247;28;20061;-76
2022/12/12 05:42:26;;;;;;;11.82;5.85;;;2.40;94.10;;;;;;5011007;28;20060;-75
2022/12/12 05:44:52;;;;;;;11.60;6.15;;;2.40;94.00;;;;;;5008403;28;20121;-76
2022/12/12 05:47:17;;;;;;;14.10;6.60;;;2.40;94.00;;;;;;5007394;28;20038;-75
2022/12/12 05:49:44;;;;;;;13.27;6.45;;;2.40;94.00;;;;;;5013997;28;20040;-76
2022/12/12 05:52:09;;;;;;;9.48;5.25;;;2.40;94.00;;;;;;5012943;28;20038;-75
2022/12/12 05:54:35;;;;;;;11.52;5.85;;;2.40;94.00;;;;;;5015401;28;20026;-75
2022/12/12 05:57:01;;;;;;;10.85;5.72;;;2.40;93.90;;;;;;5014637;28;20481;-76
2022/12/12 05:59:28;;;;;;;12.07;5.45;;;2.30;93.80;;;;;;5011363;28;20062;-75
2022/12/12 06:01:54;;;;;;;9.73;5.15;;;2.30;93.70;;;;;;5006470;28;20046;-76
2022/12/12 06:04:19;;;;;;;9.02;5.05;;;2.30;93.70;;;;;;5013364;28;20038;-75
2022/12/12 06:06:45;;;;;;;8.80;4.80;;;2.30;93.60;;;;;;5012940;28;20037;-76
2022/12/12 06:09:11;;;;;;;11.43;6.20;;;2.20;93.70;;;;;;5011305;28;20405;-75
2022/12/12 06:11:37;;;;;;;12.27;6.15;;;2.20;93.70;;;;;;5007140;28;20871;-75
2022/12/12 06:14:03;;;;;;;11.93;6.13;;;2.30;93.50;;;;;;5013896;28;20051;-75
2022/12/12 06:16:29;;;;;;;12.63;6.75;;;2.20;93.50;;;;;;5012087;28;20034;-75
2022/12/12 06:18:55;;;;;;;11.48;6.13;;;2.20;93.90;;;;;;5010000;28;20072;-75
2022/12/12 06:21:21;;;;;;;12.23;6.28;;;2.20;93.60;;;;;;5012189;28;20065;-75
2022/12/12 06:23:48;;;;;;;10.63;6.00;;;2.20;93.60;;;;;;5010344;28;20786;-75
2022/12/12 06:26:15;;;;;;;13.13;6.43;;;2.20;93.50;;;;;;5008093;28;20033;-75
2022/12/12 06:28:42;;;;;;;9.57;6.18;;;2.10;93.50;;;;;;5009257;28;20375;-75
2022/12/12 06:31:08;;;;;;;14.20;7.50;;;2.10;93.40;;;;;;5011943;28;20064;-76
2022/12/12 06:33:35;;;;;;;11.05;6.30;;;2.00;93.40;;;;;;5011097;28;20783;-76
2022/12/12 06:36:04;;;;;;;14.63;7.45;;;2.00;93.40;;;;;;5004641;28;20666;-76
2022/12/12 06:38:30;;;;;;;12.77;6.28;;;2.00;93.40;;;;;;5003976;28;20087;-76
2022/12/12 06:40:56;;;;;;;11.75;6.70;;;1.90;93.40;;;;;;5012427;28;20040;-75
2022/12/12 06:43:22;;;;;;;10.75;6.47;;;2.00;93.50;;;;;;5006319;28;20040;-75
2022/12/12 06:45:48;;;;;;;13.07;7.95;;;1.90;93.40;;;;;;5009314;28;20739;-76
2022/12/12 06:48:15;;;;;;;12.55;6.82;;;1.90;93.50;;;;;;5013876;28;20103;-76
2022/12/12 06:50:43;;;;;;;8.52;5.38;;;1.90;93.40;;;;;;5010126;28;20077;-76
2022/12/12 06:53:09;;;;;;;10.82;5.20;;;1.90;93.70;;;;;;5005777;28;20074;-76
2022/12/12 06:55:43;;;;;;;12.98;6.90;;;1.90;93.80;;;;;;5004401;28;20049;-76
2022/12/12 06:58:09;;;;;;;11.40;5.60;;;1.90;93.50;;;;;;5009416;28;20125;-75
2022/12/12 07:00:35;;;;;;;13.93;6.53;;;1.90;93.50;;;;;;5006797;28;20065;-76
2022/12/12 07:03:01;;;;;;;11.00;6.60;;;1.90;93.60;;;;;;5007313;28;20048;-76
2022/12/12 07:05:27;;;;;;;10.00;5.80;;;1.90;93.60;;;;;;5006413;28;20033;-76
2022/12/12 07:07:53;;;;;;;10.38;5.63;;;2.00;93.60;;;;;;5008460;28;20046;-76
2022/12/12 07:10:19;;;;;;;10.50;5.90;;;2.00;93.70;;;;;;5012205;28;20045;-75
2022/12/12 07:12:44;;;;;;;10.13;5.78;;;2.00;93.70;;;;;;5011192;28;20064;-76
2022/12/12 07:15:11;;;;;;;14.20;7.63;;;2.00;93.60;;;;;;5008921;28;20033;-76
2022/12/12 07:17:37;;;;;;;9.90;5.95;;;2.00;93.60;;;;;;5010299;28;20026;-75
2022/12/12 07:20:03;;;;;;;11.07;5.70;;;2.00;93.60;;;;;;5004642;28;20765;-75
2022/12/12 07:22:29;;;;;;;7.38;5.00;;;2.00;93.90;;;;;;5012849;28;20176;-75
2022/12/12 07:24:55;;;;;;;8.32;4.88;;;2.00;93.60;;;;;;5012912;28;20041;-75
2022/12/12 07:27:21;;;;;;;11.15;6.72;;;2.00;93.60;;;;;;5009951;28;20049;-75
2022/12/12 07:29:46;;;;;;;10.25;6.38;;;2.00;93.40;;;;;;5010149;28;20030;-75
2022/12/12 07:32:12;;;;;;;16.85;7.38;;;2.00;93.50;;;;;;5004973;28;20033;-75
2022/12/12 07:34:38;;;;;;;9.77;5.45;;;2.00;93.60;;;;;;5005972;28;20409;-75
2022/12/12 07:37:03;;;;;;;9.68;5.57;;;2.00;93.70;;;;;;5007036;28;20375;-76
2022/12/12 07:39:31;;;;;;;11.95;6.70;;;2.00;93.60;;;;;;5006942;28;20029;-76
2022/12/12 07:41:57;;;;;;;9.23;5.60;;;2.00;93.70;;;;;;5008876;28;20789;-75
2022/12/12 07:44:23;;;;;;;16.75;7.25;;;2.00;93.10;;;;;;5007666;28;20152;-76
2022/12/12 07:46:49;;;;;;;12.45;6.85;;;2.00;93.50;;;;;;5007195;28;20045;-75
2022/12/12 07:49:14;;;;;;;9.68;5.13;;;2.00;93.60;;;;;;5007751;28;20180;-75
2022/12/12 07:51:40;;;;;;;11.88;6.03;;;2.00;93.60;;;;;;5005355;28;20038;-75
2022/12/12 07:54:06;;;;;;;11.68;6.85;;;2.00;93.50;;;;;;5005588;28;20034;-75
2022/12/12 07:56:32;;;;;;;17.52;10.10;;;2.00;93.50;;;;;;5009768;28;20029;-75
2022/12/12 07:58:57;;;;;;;12.38;7.25;;;2.00;93.50;;;;;;5046014;28;20036;-75
2022/12/12 08:01:25;;;;;;;10.70;6.43;;;2.00;93.50;;;;;;5016129;28;20109;-76
2022/12/12 08:03:53;;;;;;;8.73;5.55;;;2.10;93.50;;;;;;5007268;28;20045;-75
2022/12/12 08:06:20;;;;;;;8.40;4.90;;;2.10;93.30;;;;;;5010292;28;20518;-76
2022/12/12 08:08:48;;;;;;;9.13;5.28;;;2.20;93.10;;;;;;5007230;28;20048;-75
2022/12/12 08:11:17;;;;;;;6.45;4.20;;;2.20;93.20;;;;;;5005392;28;20553;-75
2022/12/12 08:13:44;;;;;;;8.13;4.93;;;2.20;93.20;;;;;;5008206;28;20673;-75
2022/12/12 08:16:15;;;;;;;7.95;5.40;;;2.20;93.20;;;;;;5009882;28;20030;-75
2022/12/12 08:18:41;;;;;;;8.52;4.95;;;2.30;93.20;;;;;;5016656;28;20037;-75
2022/12/12 08:21:09;;;;;;;8.75;4.60;;;2.30;93.00;;;;;;5010639;28;20145;-75
2022/12/12 08:23:36;;;;;;;7.75;5.15;;;2.30;92.90;;;;;;5006866;28;20037;-76
2022/12/12 08:26:05;;;;;;;8.05;4.95;;;2.30;92.90;;;;;;5014796;28;20034;-75
2022/12/12 08:28:31;;;;;;;6.30;4.55;;;2.30;92.70;;;;;;5014434;28;20041;-75
2022/12/12 08:30:57;;;;;;;8.43;4.75;;;2.30;92.60;;;;;;5010803;28;20045;-68
2022/12/12 08:33:22;;;;;;;7.03;4.47;;;2.30;92.80;;;;;;5000027;28;20065;-74
2022/12/12 08:35:48;;;;;;;7.78;5.22;;;2.30;92.70;;;;;;5006617;28;20548;-74
2022/12/12 08:38:14;;;;;;;10.05;5.65;;;2.30;92.60;;;;;;5006096;28;20838;-74
2022/12/12 08:40:40;;;;;;;9.45;5.30;;;2.40;92.30;;;;;;5009170;28;20040;-73
2022/12/12 08:43:08;;;;;;;9.55;5.70;;;2.40;92.20;;;;;;5010142;28;20045;-73
2022/12/12 08:45:34;;;;;;;7.55;4.85;;;2.40;92.10;;;;;;5009113;28;20026;-74
2022/12/12 08:48:00;;;;;;;8.27;4.30;;;2.40;92.00;;;;;;5002342;28;20031;-72
2022/12/12 08:50:26;;;;;;;9.90;6.53;;;2.40;91.90;;;;;;5003327;28;20699;-72
2022/12/12 08:52:52;;;;;;;16.45;10.57;;;2.40;91.80;;;;;;5005359;28;20044;-75
2022/12/12 08:55:18;;;;;;;10.50;6.95;;;2.50;91.90;;;;;;5005856;28;20033;-74
2022/12/12 08:57:44;;;;;;;9.05;6.10;;;2.50;91.90;;;;;;5005536;28;20034;-74
2022/12/12 09:00:10;;;;;;;9.88;5.85;;;2.50;92.10;;;;;;5006602;28;20034;-73
2022/12/12 09:02:36;;;;;;;7.18;5.00;;;2.60;92.20;;;;;;5004841;28;20040;-72
2022/12/12 09:05:02;;;;;;;9.15;4.32;;;2.60;91.90;;;;;;5007320;28;20343;-72
2022/12/12 09:07:28;;;;;;;7.88;4.57;;;2.70;91.60;;;;;;5008718;28;20075;-72
2022/12/12 09:09:54;;;;;;;7.68;4.65;;;2.70;91.60;;;;;;5006066;28;20053;-70
2022/12/12 09:12:20;;;;;;;6.85;4.40;;;2.70;91.30;;;;;;5006910;28;20026;-71
2022/12/12 09:14:45;;;;;;;8.48;4.93;;;2.70;91.30;;;;;;5006933;28;20041;-70
2022/12/12 09:17:11;;;;;;;9.05;4.43;;;2.70;91.30;;;;;;5003266;28;20057;-70
2022/12/12 09:19:38;;;;;;;9.10;5.53;;;2.70;91.60;;;;;;5007119;28;20018;-70
2022/12/12 09:22:04;;;;;;;8.75;5.82;;;2.70;91.60;;;;;;5003303;28;20508;-71
2022/12/12 09:24:30;;;;;;;10.55;5.95;;;2.80;91.60;;;;;;5008691;28;20029;-71
2022/12/12 09:26:56;;;;;;;13.55;8.13;;;2.80;91.30;;;;;;5006115;28;20117;-71
2022/12/12 09:29:22;;;;;;;13.63;8.77;;;2.90;90.70;;;;;;5007738;28;20862;-72
2022/12/12 09:31:48;;;;;;;11.88;6.80;;;2.90;90.70;;;;;;5006456;28;20616;-71
2022/12/12 09:34:13;;;;;;;10.27;6.32;;;3.00;90.90;;;;;;4999909;28;20030;-71
2022/12/12 09:36:39;;;;;;;10.23;5.90;;;3.00;90.80;;;;;;5002705;28;20022;-65
2022/12/12 09:39:05;;;;;;;8.95;5.30;;;3.00;90.50;;;;;;5006916;28;20827;-72
2022/12/12 09:41:31;;;;;;;10.25;6.22;;;3.10;90.30;;;;;;5013573;28;20078;-74
2022/12/12 09:43:59;;;;;;;20.08;11.20;;;3.20;90.00;;;;;;5009929;28;20186;-73
2022/12/12 09:46:42;;;;;;;13.82;7.90;;;3.30;90.00;;;;;;5040319;28;20081;-73
2022/12/12 09:49:28;;;;;;;10.82;5.78;;;3.70;89.60;;;;;;5011785;28;20036;-74
2022/12/12 09:51:56;;;;;;;14.13;8.57;;;4.00;87.00;;;;;;5009149;28;20151;-72
2022/12/12 09:54:25;;;;;;;8.15;5.50;;;4.40;85.20;;;;;;5019892;28;20479;-71
2022/12/12 09:57:10;;;;;;;25.95;23.13;;;4.90;83.40;;;;;;5015343;28;20420;-72
2022/12/12 10:00:00;;;;;;;10.35;6.95;;;5.70;79.30;;;;;;5011642;28;20072;-71
2022/12/12 10:02:36;;;;;;;9.80;6.22;;;6.40;75.70;;;;;;5010679;28;20065;-72
2022/12/12 10:05:16;;;;;;;15.52;8.40;;;6.90;73.50;;;;;;5015627;28;20030;-71
2022/12/12 10:07:58;;;;;;;11.15;6.20;;;6.70;72.20;;;;;;5011183;28;20212;-71
2022/12/12 10:10:30;;;;;;;8.43;5.10;;;6.00;73.80;;;;;;5008711;28;20068;-71
2022/12/12 10:12:58;;;;;;;11.35;6.70;;;5.50;75.90;;;;;;5006957;28;20030;-72
2022/12/12 10:15:30;;;;;;;10.45;6.25;;;5.20;77.40;;;;;;5014536;28;20033;-72
2022/12/12 10:18:01;;;;;;;10.75;6.60;;;5.00;77.70;;;;;;5008356;28;20465;-72
2022/12/12 10:20:30;;;;;;;8.45;5.15;;;4.90;78.00;;;;;;5013462;28;20309;-72
2022/12/12 10:23:18;;;;;;;11.55;6.72;;;5.00;77.90;;;;;;5003933;28;20554;-72
2022/12/12 10:26:07;;;;;;;9.55;5.38;;;5.10;75.40;;;;;;5007652;28;20760;-71
2022/12/12 10:28:34;;;;;;;8.38;4.97;;;4.70;77.80;;;;;;5009693;28;20037;-72
2022/12/12 10:31:12;;;;;;;10.18;5.90;;;4.50;78.80;;;;;;5011583;28;20808;-71
2022/12/12 10:33:57;;;;;;;8.82;6.00;;;4.30;79.60;;;;;;5012766;28;20095;-71
2022/12/12 10:36:31;;;;;;;11.90;5.72;;;4.30;81.20;;;;;;5010683;28;20080;-71
2022/12/12 10:39:27;;;;;;;8.88;5.53;;;4.70;79.10;;;;;;5009471;28;20902;-71
2022/12/12 10:42:30;;;;;;;11.07;6.70;;;5.50;76.30;;;;;;4993107;28;20120;-70
2022/12/12 10:45:20;;;;;;;11.70;6.10;;;5.80;74.10;;;;;;5007042;28;20034;-70
2022/12/12 10:47:46;;;;;;;10.23;6.68;;;5.90;74.10;;;;;;5008531;28;20037;-69
2022/12/12 10:50:20;;;;;;;13.10;7.00;;;5.90;74.00;;;;;;5005181;28;20037;-71
2022/12/12 10:52:46;;;;;;;12.98;6.88;;;6.20;71.60;;;;;;5005367;28;20037;-71
2022/12/12 10:55:22;;;;;;;12.95;6.85;;;6.70;69.60;;;;;;5007413;28;20033;-71
2022/12/12 10:58:00;;;;;;;13.32;7.18;;;7.50;66.30;;;;;;5008698;28;20097;-68
2022/12/12 11:00:37;;;;;;;14.65;7.68;;;7.80;65.00;;;;;;5010096;28;20072;-69
2022/12/12 11:03:27;;;;;;;11.90;6.57;;;8.10;63.90;;;;;;5014574;28;20466;-69
2022/12/12 11:05:55;;;;;;;13.02;6.68;;;8.50;62.10;;;;;;5014752;28;20049;-69
2022/12/12 11:08:28;;;;;;;16.38;6.57;;;8.40;62.20;;;;;;5014065;28;20098;-69
2022/12/12 11:11:19;;;;;;;14.57;7.07;;;7.80;64.10;;;;;;5014217;28;20048;-70
2022/12/12 11:13:51;;;;;;;10.38;5.68;;;6.90;67.00;;;;;;5002371;28;20158;-68
2022/12/12 11:16:41;;;;;;;12.75;6.88;;;6.10;69.50;;;;;;5014255;28;20746;-68
2022/12/12 11:19:15;;;;;;;12.25;6.03;;;5.50;73.00;;;;;;5006724;28;20782;-68
2022/12/12 11:21:42;;;;;;;12.18;6.53;;;4.90;74.80;;;;;;5004547;28;20071;-69
2022/12/12 11:24:29;;;;;;;12.10;6.63;;;4.60;76.60;;;;;;5013379;28;20646;-70
2022/12/12 11:27:05;;;;;;;13.63;7.30;;;4.30;77.40;;;;;;5012010;28;20041;-66
2022/12/12 11:29:39;;;;;;;13.90;7.30;;;4.10;79.10;;;;;;5008014;28;20034;-74
2022/12/12 11:32:23;;;;;;;11.52;5.97;;;4.00;79.50;;;;;;5012555;28;20049;-71
2022/12/12 11:34:55;;;;;;;12.07;7.22;;;4.00;79.40;;;;;;5011019;28;20073;-74
2022/12/12 11:37:36;;;;;;;12.45;7.18;;;3.90;80.30;;;;;;5009833;28;20040;-70
2022/12/12 11:40:03;;;;;;;10.70;6.55;;;3.80;81.00;;;;;;5006048;28;20766;-73
2022/12/12 11:42:31;;;;;;;12.20;7.07;;;3.80;80.70;;;;;;5007836;28;20065;-69
2022/12/12 11:45:09;;;;;;;11.18;6.40;;;3.80;81.50;;;;;;5007929;28;20088;-70
2022/12/12 11:47:40;;;;;;;13.38;7.25;;;3.80;81.60;;;;;;5007430;28;20443;-73
2022/12/12 11:50:17;;;;;;;11.10;6.32;;;3.80;81.00;;;;;;5003263;28;20087;-74
2022/12/12 11:52:43;;;;;;;12.27;6.65;;;3.70;81.60;;;;;;5010415;28;20030;-71
2022/12/12 11:55:15;;;;;;;10.88;7.00;;;3.70;81.60;;;;;;5011092;28;20034;-71
2022/12/12 11:57:59;;;;;;;12.15;6.40;;;3.60;80.90;;;;;;5008516;28;20710;-71
2022/12/12 12:00:33;;;;;;;14.15;7.28;;;3.30;82.00;;;;;;5007423;28;20489;-72
2022/12/12 12:03:22;;;;;;;11.18;7.07;;;3.20;83.00;;;;;;5008648;28;20034;-72
2022/12/12 12:05:52;;;;;;;9.43;6.53;;;3.10;83.00;;;;;;5002794;28;20045;-73
2022/12/12 12:08:42;;;;;;;11.95;6.80;;;3.00;84.40;;;;;;5010777;28;20792;-72
2022/12/12 12:11:23;;;;;;;12.35;7.07;;;3.00;84.90;;;;;;5010144;28;20489;-71
2022/12/12 12:14:14;;;;;;;12.48;7.13;;;3.00;84.70;;;;;;5011164;28;20483;-71
2022/12/12 12:17:09;;;;;;;13.07;9.05;;;3.00;84.10;;;;;;5011640;28;20164;-70
2022/12/12 12:19:47;;;;;;;12.57;8.55;;;3.00;84.10;;;;;;5005758;28;20028;-70
2022/12/12 12:22:37;;;;;;;14.88;9.15;;;3.00;84.60;;;;;;5004280;28;20109;-69
2022/12/12 12:25:24;;;;;;;12.55;7.75;;;3.00;84.20;;;;;;5001383;28;20033;-76
2022/12/12 12:28:09;;;;;;;12.23;7.72;;;3.00;84.30;;;;;;5005203;28;20041;-73
2022/12/12 12:31:04;;;;;;;12.57;8.05;;;3.00;83.50;;;;;;5010216;28;20029;-74
2022/12/12 12:33:33;;;;;;;10.32;6.75;;;3.00;82.80;;;;;;5007976;28;20115;-72
2022/12/12 12:36:40;;;;;;;9.90;6.28;;;3.00;83.20;;;;;;5011022;28;20387;-70
2022/12/12 12:39:27;;;;;;;11.67;7.00;;;3.00;83.30;;;;;;5005372;28;20056;-72
2022/12/12 12:42:18;;;;;;;11.88;6.72;;;3.00;83.00;;;;;;5009692;28;20124;-70
2022/12/12 12:45:26;;;;;;;12.50;7.07;;;3.00;81.80;;;;;;5004792;28;20048;-71
2022/12/12 12:48:08;;;;;;;10.90;7.05;;;2.90;81.80;;;;;;4996511;28;20505;-74
2022/12/12 12:50:44;;;;;;;12.82;6.45;;;2.80;82.00;;;;;;5007443;28;20029;-73
2022/12/12 12:53:43;;;;;;;10.45;6.28;;;2.80;82.10;;;;;;5006175;28;20055;-71
2022/12/12 12:56:25;;;;;;;11.40;6.65;;;2.80;82.90;;;;;;5010452;28;20742;-71
2022/12/12 12:58:53;;;;;;;9.70;5.90;;;2.80;83.10;;;;;;5009126;28;20065;-74
2022/12/12 13:01:29;;;;;;;12.15;6.72;;;2.80;82.70;;;;;;5001199;28;20026;-69
2022/12/12 13:04:02;;;;;;;12.68;6.63;;;2.70;82.70;;;;;;5002822;28;20102;-69
2022/12/12 13:06:38;;;;;;;10.50;6.25;;;2.50;82.40;;;;;;5013411;28;20037;-70
2022/12/12 13:09:26;;;;;;;12.57;7.00;;;2.50;83.70;;;;;;5007054;28;20033;-70
2022/12/12 13:12:02;;;;;;;13.55;7.78;;;2.40;84.00;;;;;;5007796;28;20108;-71
2022/12/12 13:14:40;;;;;;;;;;;2.40;84.70;;;;;;5008747;28;20033;-71
2022/12/12 13:17:14;;;;;;;11.68;6.60;;;2.50;84.70;;;;;;5010212;28;19919;-71
2022/12/12 13:19:44;;;;;;;11.32;6.38;;;2.60;84.50;;;;;;5006536;28;20034;-70
2022/12/12 13:22:45;;;;;;;12.20;7.28;;;2.60;84.20;;;;;;5010526;28;20071;-69
2022/12/12 13:25:20;;;;;;;12.13;5.78;;;2.60;84.30;;;;;;5014636;28;20041;-68
2022/12/12 13:27:51;;;;;;;14.02;7.47;;;2.50;84.30;;;;;;5010249;28;20044;-68